Time;durP1;ratioP1;P1;durP2;ratioP2;P2;SDS_P1;SDS_P2;PMS_P1;PMS_P2;Temp;Humidity;BMP_temperature;BMP_pressure;BME280_temperature;BME280_humidity;BME280_pressure;Samples;Min_cycle;Max_cycle;Signal;HPM_P1;HPM_P2
2023/12/20 00:01:46;;;;;;;18.13;4.30;;;;;;;5.78;100.00;101580.84;5034655;28;20021;-57
2023/12/20 00:04:12;;;;;;;17.70;4.22;;;;;;;5.75;100.00;101591.50;5032280;28;20029;-57
2023/12/20 00:06:37;;;;;;;16.38;4.03;;;;;;;5.69;100.00;101595.25;5031834;28;20018;-56
2023/12/20 00:09:02;;;;;;;16.25;3.67;;;;;;;5.63;100.00;101597.31;5033388;28;20025;-56
2023/12/20 00:11:28;;;;;;;12.27;3.75;;;;;;;5.57;100.00;101598.44;5033320;28;20021;-57
2023/12/20 00:13:53;;;;;;;16.92;4.28;;;;;;;5.55;100.00;101601.16;5034125;28;20083;-57
2023/12/20 00:16:18;;;;;;;16.45;4.55;;;;;;;5.51;100.00;101603.97;5032033;28;20033;-56
2023/12/20 00:18:44;;;;;;;14.05;3.47;;;;;;;5.48;100.00;101609.38;5034216;28;20116;-57
2023/12/20 00:21:09;;;;;;;17.23;3.65;;;;;;;5.44;100.00;101605.16;5033433;28;20020;-56
2023/12/20 00:23:34;;;;;;;15.80;4.30;;;;;;;5.41;100.00;101600.88;5031910;28;20116;-57
2023/12/20 00:25:59;;;;;;;20.52;3.95;;;;;;;5.37;100.00;101608.06;5035021;28;20033;-56
2023/12/20 00:28:25;;;;;;;9.50;3.22;;;;;;;5.35;100.00;101602.00;5036032;28;20445;-57
2023/12/20 00:30:50;;;;;;;18.95;3.75;;;;;;;5.32;100.00;101599.50;5034472;28;20029;-57
2023/12/20 00:33:15;;;;;;;19.05;4.00;;;;;;;5.30;100.00;101595.22;5033450;28;20025;-57
2023/12/20 00:35:41;;;;;;;19.83;4.15;;;;;;;5.26;100.00;101599.78;5034647;28;20072;-57
2023/12/20 00:38:06;;;;;;;12.95;3.95;;;;;;;5.25;100.00;101598.06;5036023;28;20032;-57
2023/12/20 00:40:33;;;;;;;13.98;3.45;;;;;;;5.21;100.00;101591.19;5034356;28;20076;-56
2023/12/20 00:42:58;;;;;;;15.35;3.53;;;;;;;5.18;100.00;101589.56;5031364;28;20044;-55
2023/12/20 00:45:23;;;;;;;15.15;3.63;;;;;;;5.14;100.00;101587.09;5034698;28;20466;-57
2023/12/20 00:47:48;;;;;;;17.02;3.35;;;;;;;5.13;100.00;101586.25;5032340;28;20037;-53
2023/12/20 00:50:14;;;;;;;15.73;3.30;;;;;;;5.11;100.00;101580.22;5032689;28;20045;-56
2023/12/20 00:52:39;;;;;;;14.02;3.20;;;;;;;5.07;100.00;101591.78;5033623;28;20061;-56
2023/12/20 00:55:05;;;;;;;16.67;3.42;;;;;;;5.07;100.00;101585.66;5035775;28;20113;-56
2023/12/20 00:57:31;;;;;;;14.35;3.10;;;;;;;5.05;100.00;101583.09;5030260;28;20076;-53
2023/12/20 00:59:56;;;;;;;13.88;3.72;;;;;;;5.03;100.00;101578.78;5033435;28;20108;-57
2023/12/20 01:02:21;;;;;;;16.52;3.55;;;;;;;5.00;100.00;101583.28;5033735;28;20486;-57
2023/12/20 01:04:47;;;;;;;8.45;3.05;;;;;;;4.98;100.00;101582.47;5034523;28;20080;-56
2023/12/20 01:07:12;;;;;;;16.35;3.47;;;;;;;4.96;100.00;101581.69;5031959;28;20060;-56
2023/12/20 01:09:37;;;;;;;16.10;3.15;;;;;;;4.93;100.00;101579.19;5033126;28;20067;-57
2023/12/20 01:12:03;;;;;;;14.90;3.40;;;;;;;4.92;100.00;101582.72;5032551;28;20028;-56
2023/12/20 01:14:28;;;;;;;15.73;3.05;;;;;;;4.91;100.00;101588.94;5030963;28;20023;-57
2023/12/20 01:16:53;;;;;;;12.13;3.20;;;;;;;4.90;100.00;101581.94;5031831;28;20029;-56
2023/12/20 01:19:19;;;;;;;13.05;2.90;;;;;;;4.90;100.00;101592.47;5034455;28;20041;-57
2023/12/20 01:21:44;;;;;;;17.48;3.63;;;;;;;4.90;100.00;101589.84;5031617;28;20022;-57
2023/12/20 01:24:09;;;;;;;19.02;3.78;;;;;;;4.89;100.00;101584.63;5032889;28;20036;-56
2023/12/20 01:26:35;;;;;;;15.45;3.33;;;;;;;4.88;100.00;101594.31;5032897;28;20537;-55
2023/12/20 01:29:00;;;;;;;14.57;2.72;;;;;;;4.87;100.00;101597.84;5013010;28;20503;-57
2023/12/20 01:31:27;;;;;;;13.65;3.15;;;;;;;4.87;100.00;101595.22;5029903;28;20029;-54
2023/12/20 01:33:52;;;;;;;20.05;3.35;;;;;;;4.86;100.00;101601.41;5030221;28;20378;-56
2023/12/20 01:36:17;;;;;;;12.88;2.65;;;;;;;4.90;100.00;101597.72;5030472;28;20022;-57
2023/12/20 01:38:43;;;;;;;14.18;3.00;;;;;;;4.90;100.00;101597.72;5032992;28;20028;-57
2023/12/20 01:41:08;;;;;;;15.15;3.17;;;;;;;4.92;100.00;101602.94;5032037;28;20112;-57
2023/12/20 01:43:33;;;;;;;12.90;3.17;;;;;;;4.93;100.00;101597.63;5035028;28;20024;-56
2023/12/20 01:46:00;;;;;;;14.85;3.17;;;;;;;4.93;100.00;101596.72;5032396;28;20040;-56
2023/12/20 01:48:27;;;;;;;11.88;3.05;;;;;;;4.94;100.00;101598.47;5031716;28;20079;-56
2023/12/20 01:50:54;;;;;;;16.27;3.80;;;;;;;4.94;100.00;101595.81;5028716;28;20033;-57
2023/12/20 01:53:21;;;;;;;14.10;3.75;;;;;;;4.93;100.00;101589.72;5030275;28;20033;-57
2023/12/20 01:55:49;;;;;;;13.63;3.45;;;;;;;4.94;100.00;101595.81;5032556;28;20018;-56
2023/12/20 01:58:14;;;;;;;18.35;3.50;;;;;;;4.93;100.00;101602.88;5027191;28;20381;-53
2023/12/20 02:00:40;;;;;;;13.52;3.17;;;;;;;4.93;100.00;101600.25;5029781;28;20022;-57
2023/12/20 02:03:06;;;;;;;16.77;3.33;;;;;;;4.91;100.00;101594.19;5030706;28;20102;-56
2023/12/20 02:05:32;;;;;;;12.38;3.38;;;;;;;4.89;100.00;101596.00;5032093;28;20454;-56
2023/12/20 02:07:58;;;;;;;18.73;3.35;;;;;;;4.87;100.00;101597.84;5029006;28;20059;-56
2023/12/20 02:10:24;;;;;;;15.77;3.25;;;;;;;4.86;100.00;101590.03;5033229;28;20504;-57
2023/12/20 02:12:49;;;;;;;16.45;3.70;;;;;;;4.85;100.00;101599.69;5031565;28;20045;-57
2023/12/20 02:15:15;;;;;;;14.57;3.40;;;;;;;4.84;100.00;101597.97;5030419;28;20024;-57
2023/12/20 02:17:40;;;;;;;11.57;3.00;;;;;;;4.85;100.00;101598.84;5031045;28;20033;-57
2023/12/20 02:20:06;;;;;;;16.67;3.88;;;;;;;4.82;100.00;101598.03;5029895;28;20017;-57
2023/12/20 02:22:32;;;;;;;13.27;3.50;;;;;;;4.81;100.00;101609.50;5031761;28;20072;-57
2023/12/20 02:24:57;;;;;;;16.15;3.92;;;;;;;4.80;100.00;101596.41;5032416;28;20030;-58
2023/12/20 02:27:23;;;;;;;14.43;3.55;;;;;;;4.80;100.00;101604.28;5029751;28;20032;-58
2023/12/20 02:29:50;;;;;;;16.15;4.30;;;;;;;4.77;100.00;101597.38;5030859;28;20417;-58
2023/12/20 02:32:16;;;;;;;14.18;3.75;;;;;;;4.75;100.00;101586.06;5032561;28;20044;-58
2023/12/20 02:34:42;;;;;;;19.58;4.03;;;;;;;4.74;100.00;101591.38;5036377;28;20262;-56
2023/12/20 02:37:07;;;;;;;16.15;4.43;;;;;;;4.72;100.00;101586.16;5037642;28;20474;-56
2023/12/20 02:39:33;;;;;;;19.17;4.10;;;;;;;4.69;100.00;101588.06;5034633;28;21117;-57
2023/12/20 02:41:58;;;;;;;11.80;3.33;;;;;;;4.68;100.00;101586.34;5035726;28;20017;-57
2023/12/20 02:44:24;;;;;;;17.33;4.30;;;;;;;4.67;100.00;101595.19;5037807;28;20029;-58
2023/12/20 02:46:49;;;;;;;17.90;3.97;;;;;;;4.63;100.00;101595.28;5037597;28;20105;-58
2023/12/20 02:49:15;;;;;;;14.85;4.07;;;;;;;4.63;100.00;101591.81;5035448;28;20044;-56
2023/12/20 02:51:40;;;;;;;20.10;3.47;;;;;;;4.61;100.00;101589.25;5034553;28;20037;-57
2023/12/20 02:54:05;;;;;;;14.07;3.78;;;;;;;4.59;100.00;101577.91;5033350;28;20021;-55
2023/12/20 02:56:32;;;;;;;19.55;4.10;;;;;;;4.60;100.00;101586.66;5035809;28;20029;-58
2023/12/20 02:58:57;;;;;;;23.52;4.40;;;;;;;4.61;100.00;101591.00;5034007;28;20022;-57
2023/12/20 03:01:22;;;;;;;18.80;4.30;;;;;;;4.62;100.00;101584.81;5034427;28;20022;-56
2023/12/20 03:03:48;;;;;;;15.07;3.95;;;;;;;4.61;100.00;101586.63;5040630;28;20028;-57
2023/12/20 03:06:17;;;;;;;13.55;3.70;;;;;;;4.60;100.00;101587.53;5032687;28;20025;-56
2023/12/20 03:08:42;;;;;;;;;;;;;;;4.68;100.00;101581.09;5036730;28;20053;-58
2023/12/20 03:11:08;;;;;;;16.23;4.60;;;;;;;4.58;100.00;101578.84;5034643;28;19986;-58
2023/12/20 03:13:33;;;;;;;15.50;4.03;;;;;;;4.57;100.00;101576.25;5033242;28;20354;-57
2023/12/20 03:15:59;;;;;;;19.33;4.38;;;;;;;4.55;100.00;101575.47;5034275;28;20132;-57
2023/12/20 03:18:24;;;;;;;19.08;4.07;;;;;;;4.53;100.00;101575.53;5035536;28;20108;-56
2023/12/20 03:20:50;;;;;;;13.18;3.70;;;;;;;4.52;100.00;101572.97;5033964;28;20029;-56
2023/12/20 03:23:16;;;;;;;24.00;4.50;;;;;;;4.51;100.00;101579.97;5037580;28;20076;-55
2023/12/20 03:25:41;;;;;;;17.30;4.13;;;;;;;4.51;100.00;101573.88;5034823;28;20022;-58
2023/12/20 03:28:06;;;;;;;17.30;4.07;;;;;;;4.49;100.00;101571.28;5036360;28;20045;-55
2023/12/20 03:30:32;;;;;;;15.80;4.20;;;;;;;4.50;100.00;101567.75;5034723;28;20117;-58
2023/12/20 03:32:57;;;;;;;17.40;4.35;;;;;;;4.50;100.00;101564.28;5017709;28;20031;-57
2023/12/20 03:35:22;;;;;;;19.50;4.30;;;;;;;4.52;100.00;101559.81;5037150;28;20044;-57
2023/12/20 03:37:48;;;;;;;19.85;4.25;;;;;;;4.53;100.00;101554.50;5032890;28;20021;-55
2023/12/20 03:40:13;;;;;;;15.27;4.57;;;;;;;4.55;100.00;101550.00;5034841;28;20079;-57
2023/12/20 03:42:38;;;;;;;18.25;4.65;;;;;;;4.58;100.00;101554.28;5034811;28;20067;-57
2023/12/20 03:45:04;;;;;;;17.60;4.85;;;;;;;4.59;100.00;101550.75;5036404;28;20037;-57
2023/12/20 03:47:29;;;;;;;25.83;5.00;;;;;;;4.62;100.00;101554.09;5032374;28;20067;-58
2023/12/20 03:49:54;;;;;;;17.67;4.10;;;;;;;4.64;100.00;101551.41;5035840;28;20112;-57
2023/12/20 03:52:20;;;;;;;20.23;4.85;;;;;;;4.66;100.00;101551.34;5033476;28;20479;-57
2023/12/20 03:54:45;;;;;;;18.27;4.78;;;;;;;4.69;100.00;101557.34;5036393;28;20043;-56
2023/12/20 03:57:10;;;;;;;15.27;4.85;;;;;;;4.72;100.00;101559.00;5034594;28;20056;-59
2023/12/20 03:59:38;;;;;;;19.45;5.35;;;;;;;4.74;100.00;101565.06;5034659;28;20033;-57
2023/12/20 04:02:04;;;;;;;22.80;5.13;;;;;;;4.77;100.00;101567.56;5034115;28;20466;-57
2023/12/20 04:04:29;;;;;;;21.42;5.38;;;;;;;4.79;100.00;101563.94;5036967;28;20036;-58
2023/12/20 04:06:55;;;;;;;18.05;4.75;;;;;;;4.82;100.00;101568.22;5033129;28;20041;-57
2023/12/20 04:09:20;;;;;;;20.17;5.68;;;;;;;4.85;100.00;101562.00;5038019;28;20028;-58
2023/12/20 04:11:45;;;;;;;23.20;5.30;;;;;;;4.86;100.00;101555.81;5034101;28;20033;-56
2023/12/20 04:14:10;;;;;;;21.10;5.70;;;;;;;4.89;100.00;101559.16;5032892;28;20053;-58
2023/12/20 04:16:36;;;;;;;19.83;4.70;;;;;;;4.92;100.00;101561.66;5032662;28;20386;-56
2023/12/20 04:19:02;;;;;;;24.10;5.32;;;;;;;4.94;100.00;101565.09;5035153;28;20034;-58
2023/12/20 04:21:27;;;;;;;20.90;5.43;;;;;;;4.98;100.00;101557.94;5032010;28;20463;-58
2023/12/20 04:23:52;;;;;;;19.40;5.78;;;;;;;5.00;100.00;101564.84;5034729;28;20029;-56
2023/12/20 04:26:18;;;;;;;21.90;5.55;;;;;;;5.03;100.00;101555.09;5031671;28;20026;-58
2023/12/20 04:28:43;;;;;;;18.92;5.03;;;;;;;5.05;100.00;101561.19;5034646;28;20025;-56
2023/12/20 04:31:08;;;;;;;18.80;5.13;;;;;;;5.08;100.00;101558.38;5031955;28;20034;-58
2023/12/20 04:33:34;;;;;;;21.77;5.47;;;;;;;5.10;100.00;101569.72;5033019;28;20025;-57
2023/12/20 04:36:00;;;;;;;20.50;5.47;;;;;;;5.12;100.00;101560.00;5033480;28;20052;-57
2023/12/20 04:38:25;;;;;;;20.75;5.63;;;;;;;5.15;100.00;101563.34;5033518;28;20532;-56
2023/12/20 04:40:50;;;;;;;21.30;5.60;;;;;;;5.15;100.00;101555.44;5034172;28;20029;-57
2023/12/20 04:43:16;;;;;;;22.55;5.07;;;;;;;5.18;100.00;101565.84;5031031;28;20196;-56
2023/12/20 04:45:41;;;;;;;22.98;4.90;;;;;;;5.21;100.00;101559.56;5030022;28;20036;-58
2023/12/20 04:48:06;;;;;;;22.58;5.43;;;;;;;5.24;100.00;101564.72;5033565;28;20392;-57
2023/12/20 04:50:33;;;;;;;30.67;4.88;;;;;;;5.27;100.00;101569.00;5034957;28;20029;-56
2023/12/20 04:52:58;;;;;;;14.95;4.22;;;;;;;5.30;100.00;101561.84;5032757;28;20545;-56
2023/12/20 04:55:23;;;;;;;20.30;4.95;;;;;;;5.34;100.00;101570.44;5030940;28;20099;-56
2023/12/20 04:57:49;;;;;;;24.75;5.70;;;;;;;5.36;100.00;101573.88;5032705;28;20033;-57
2023/12/20 05:00:15;;;;;;;18.10;4.90;;;;;;;5.39;100.00;101571.09;5032312;28;20028;-57
2023/12/20 05:02:40;;;;;;;16.00;3.95;;;;;;;5.39;100.00;101571.09;5031650;28;20103;-56
2023/12/20 05:05:06;;;;;;;24.70;4.65;;;;;;;5.41;100.00;101555.25;5033224;28;20107;-56
2023/12/20 05:07:31;;;;;;;21.73;4.70;;;;;;;5.41;100.00;101549.97;5033920;28;20040;-56
2023/12/20 05:09:56;;;;;;;22.52;4.72;;;;;;;5.43;100.00;101553.38;5031211;28;20021;-55
2023/12/20 05:12:22;;;;;;;22.98;4.45;;;;;;;5.43;100.00;101561.28;5031864;28;20152;-58
2023/12/20 05:14:47;;;;;;;23.50;5.18;;;;;;;5.44;100.00;101552.47;5034350;28;20033;-56
2023/12/20 05:17:12;;;;;;;21.80;4.63;;;;;;;5.45;100.00;101546.28;5033018;28;20029;-57
2023/12/20 05:19:37;;;;;;;21.45;4.97;;;;;;;5.46;100.00;101540.09;5034893;28;20068;-56
2023/12/20 05:22:03;;;;;;;23.27;4.72;;;;;;;5.46;100.00;101548.88;5032739;28;20021;-56
2023/12/20 05:24:28;;;;;;;19.27;4.32;;;;;;;5.47;100.00;101545.28;5032333;28;20060;-57
2023/12/20 05:26:54;;;;;;;16.48;4.40;;;;;;;5.46;100.00;101543.59;5034684;28;20053;-56
2023/12/20 05:29:19;;;;;;;28.88;4.82;;;;;;;5.46;100.00;101548.00;5014461;28;20033;-56
2023/12/20 05:31:45;;;;;;;22.17;5.03;;;;;;;5.47;100.00;101544.44;5035269;28;20025;-55
2023/12/20 05:34:10;;;;;;;20.55;4.53;;;;;;;5.47;100.00;101553.19;5031937;28;20040;-57
2023/12/20 05:36:36;;;;;;;21.38;4.40;;;;;;;5.48;100.00;101556.66;5032616;28;20542;-55
2023/12/20 05:39:03;;;;;;;21.50;4.88;;;;;;;5.48;100.00;101552.28;5031984;28;20029;-55
2023/12/20 05:41:28;;;;;;;18.02;4.10;;;;;;;5.48;100.00;101557.56;5032086;28;20018;-56
2023/12/20 05:43:54;;;;;;;22.80;4.60;;;;;;;5.48;100.00;101544.38;5033785;28;20036;-56
2023/12/20 05:46:19;;;;;;;22.73;4.20;;;;;;;5.48;100.00;101551.41;5034915;28;20025;-54
2023/12/20 05:48:44;;;;;;;22.00;4.75;;;;;;;5.47;100.00;101553.19;5030974;28;20601;-55
2023/12/20 05:51:11;;;;;;;17.50;4.32;;;;;;;5.45;100.00;101556.84;5033708;28;20551;-57
2023/12/20 05:53:37;;;;;;;19.85;5.05;;;;;;;5.41;100.00;101560.50;5033758;28;20059;-56
2023/12/20 05:56:02;;;;;;;21.25;4.97;;;;;;;5.40;100.00;101564.09;5033878;28;20064;-57
2023/12/20 05:58:29;;;;;;;19.77;4.35;;;;;;;5.37;100.00;101560.63;5030969;28;20033;-56
2023/12/20 06:00:54;;;;;;;22.17;4.78;;;;;;;5.34;100.00;101565.19;5033040;28;20616;-57
2023/12/20 06:03:19;;;;;;;17.73;4.25;;;;;;;5.33;100.00;101568.75;5015640;28;20112;-54
2023/12/20 06:05:44;;;;;;;19.52;4.50;;;;;;;5.31;100.00;101571.47;5030850;28;20025;-56
2023/12/20 06:08:10;;;;;;;20.00;4.55;;;;;;;5.27;100.00;101575.13;5029498;28;20079;-56
2023/12/20 06:10:35;;;;;;;19.58;4.03;;;;;;;5.27;100.00;101580.41;5031961;28;20021;-56
2023/12/20 06:13:00;;;;;;;20.23;4.38;;;;;;;5.27;100.00;101569.84;5031879;28;20048;-56
2023/12/20 06:15:26;;;;;;;21.58;4.07;;;;;;;5.25;100.00;101584.88;5030877;28;20033;-56
2023/12/20 06:17:51;;;;;;;17.40;4.38;;;;;;;5.24;100.00;101570.00;5034968;28;20027;-57
2023/12/20 06:20:16;;;;;;;23.10;4.57;;;;;;;5.24;100.00;101572.63;5032546;28;20036;-56
2023/12/20 06:22:42;;;;;;;17.58;4.78;;;;;;;5.22;100.00;101566.56;5029113;28;20029;-57
2023/12/20 06:25:07;;;;;;;18.65;5.13;;;;;;;5.20;100.00;101571.06;5030796;28;20029;-57
2023/12/20 06:27:33;;;;;;;19.42;4.85;;;;;;;5.19;100.00;101570.19;5030528;28;20426;-56
2023/12/20 06:29:59;;;;;;;21.77;4.90;;;;;;;5.21;100.00;101569.28;5032240;28;20033;-57
2023/12/20 06:32:24;;;;;;;22.00;4.82;;;;;;;5.17;100.00;101571.19;5032791;28;20026;-56
2023/12/20 06:34:49;;;;;;;19.17;5.00;;;;;;;5.15;100.00;101573.88;5032126;28;20022;-57
2023/12/20 06:37:15;;;;;;;18.20;5.40;;;;;;;5.11;100.00;101569.69;5029914;28;20088;-57
2023/12/20 06:39:40;;;;;;;17.80;4.82;;;;;;;5.09;100.00;101563.59;5033376;28;20032;-57
2023/12/20 06:42:06;;;;;;;18.90;5.10;;;;;;;5.04;100.00;101559.44;5035441;28;20445;-57
2023/12/20 06:44:31;;;;;;;22.25;5.32;;;;;;;5.02;100.00;101569.19;5032215;28;20029;-56
2023/12/20 06:46:57;;;;;;;20.48;5.18;;;;;;;4.97;100.00;101554.44;5031188;28;20108;-57
2023/12/20 06:49:22;;;;;;;22.38;5.53;;;;;;;4.96;100.00;101563.28;5028674;28;20053;-56
2023/12/20 06:51:47;;;;;;;15.98;5.10;;;;;;;4.95;100.00;101561.53;5031654;28;20503;-57
2023/12/20 06:54:12;;;;;;;19.73;5.25;;;;;;;4.94;100.00;101572.13;5029295;28;20021;-56
2023/12/20 06:56:38;;;;;;;19.42;5.50;;;;;;;4.93;100.00;101562.50;5030259;28;20025;-56
2023/12/20 06:59:03;;;;;;;26.77;6.35;;;;;;;4.91;100.00;101562.59;5029618;28;20084;-58
2023/12/20 07:01:28;;;;;;;16.50;5.50;;;;;;;4.90;100.00;101560.88;5027339;28;20459;-57
2023/12/20 07:03:54;;;;;;;21.23;5.47;;;;;;;4.88;100.00;101557.47;5030384;28;20105;-55
2023/12/20 07:06:20;;;;;;;20.60;5.32;;;;;;;4.89;100.00;101563.56;5030741;28;20057;-56
2023/12/20 07:08:45;;;;;;;23.00;5.32;;;;;;;4.89;100.00;101559.16;5031471;28;20379;-57
2023/12/20 07:11:11;;;;;;;19.92;5.85;;;;;;;4.87;100.00;101565.41;5028893;28;20082;-57
2023/12/20 07:13:36;;;;;;;23.00;5.90;;;;;;;4.85;100.00;101565.47;5031645;28;20333;-58
2023/12/20 07:16:01;;;;;;;23.83;5.80;;;;;;;4.81;100.00;101562.13;5031089;28;21048;-56
2023/12/20 07:18:27;;;;;;;23.58;5.70;;;;;;;4.82;100.00;101560.34;5034879;28;20032;-57
2023/12/20 07:20:54;;;;;;;29.75;5.93;;;;;;;4.81;100.00;101569.16;5039386;28;20033;-55
2023/12/20 07:23:20;;;;;;;18.30;5.57;;;;;;;4.80;100.00;101565.66;5035636;28;20589;-58
2023/12/20 07:25:45;;;;;;;21.75;5.22;;;;;;;4.81;100.00;101571.78;5035812;28;20152;-55
2023/12/20 07:28:11;;;;;;;20.55;5.05;;;;;;;4.81;100.00;101570.03;5038057;28;20044;-57
2023/12/20 07:30:36;;;;;;;30.80;5.70;;;;;;;4.83;100.00;101567.31;5033194;28;20490;-56
2023/12/20 07:33:02;;;;;;;24.98;5.63;;;;;;;4.83;100.00;101572.59;5029904;28;20076;-58
2023/12/20 07:35:28;;;;;;;22.45;5.53;;;;;;;4.85;100.00;101567.28;5037088;28;20474;-58
2023/12/20 07:37:53;;;;;;;19.38;4.57;;;;;;;4.87;100.00;101568.06;5035293;28;20032;-58
2023/12/20 07:40:18;;;;;;;27.35;5.40;;;;;;;4.86;100.00;101568.97;5036110;28;20028;-58
2023/12/20 07:42:44;;;;;;;20.33;5.30;;;;;;;4.84;100.00;101566.38;5041866;28;20044;-57
2023/12/20 07:45:10;;;;;;;19.13;4.93;;;;;;;4.86;100.00;101563.69;5034936;28;20080;-57
2023/12/20 07:47:36;;;;;;;21.88;4.95;;;;;;;4.85;100.00;101562.84;5037185;28;20040;-58
2023/12/20 07:50:02;;;;;;;22.13;5.30;;;;;;;4.84;100.00;101555.88;5038412;28;20022;-58
2023/12/20 07:52:27;;;;;;;21.98;4.93;;;;;;;4.83;100.00;101551.53;5034772;28;20029;-59
2023/12/20 07:54:53;;;;;;;21.95;4.57;;;;;;;4.84;100.00;101555.88;5037390;28;20036;-59
2023/12/20 07:57:18;;;;;;;23.45;4.97;;;;;;;4.84;100.00;101555.00;5035352;28;20038;-58
2023/12/20 07:59:44;;;;;;;22.27;5.25;;;;;;;4.88;100.00;101561.84;5039301;28;20076;-58
2023/12/20 08:02:09;;;;;;;21.70;4.95;;;;;;;4.86;100.00;101564.53;5036602;28;20026;-58
2023/12/20 08:04:35;;;;;;;26.20;5.85;;;;;;;4.88;100.00;101565.34;5037194;28;20391;-58
2023/12/20 08:07:00;;;;;;;18.30;4.82;;;;;;;4.88;100.00;101567.13;5037305;28;20049;-57
2023/12/20 08:09:25;;;;;;;23.35;5.55;;;;;;;4.89;100.00;101576.75;5041637;28;20029;-58
2023/12/20 08:11:51;;;;;;;26.80;5.78;;;;;;;4.89;100.00;101576.75;5038958;28;20068;-59
2023/12/20 08:14:16;;;;;;;19.52;4.82;;;;;;;4.91;100.00;101574.88;5035838;28;20030;-59
2023/12/20 08:16:41;;;;;;;20.40;5.20;;;;;;;4.92;100.00;101574.84;5036137;28;20475;-59
2023/12/20 08:19:07;;;;;;;19.08;5.53;;;;;;;4.95;100.00;101573.88;5037890;28;20087;-58
2023/12/20 08:21:32;;;;;;;22.48;5.32;;;;;;;4.95;100.00;101568.59;5036101;28;20120;-58
2023/12/20 08:23:58;;;;;;;22.23;4.90;;;;;;;4.96;100.00;101572.91;5037703;28;20036;-58
2023/12/20 08:26:24;;;;;;;24.65;5.20;;;;;;;4.96;100.00;101576.44;5033334;28;20022;-58
2023/12/20 08:28:49;;;;;;;17.63;4.75;;;;;;;4.98;100.00;101577.22;5032900;28;20025;-58
2023/12/20 08:31:16;;;;;;;21.92;5.15;;;;;;;4.99;100.00;101576.28;5037557;28;20037;-58
2023/12/20 08:33:44;;;;;;;22.67;4.90;;;;;;;5.03;100.00;101571.78;5035268;28;20033;-59
2023/12/20 08:36:09;;;;;;;28.58;5.38;;;;;;;5.05;100.00;101576.97;5036815;28;20073;-58
2023/12/20 08:38:34;;;;;;;25.25;4.95;;;;;;;5.07;100.00;101594.41;5038252;28;20068;-58
2023/12/20 08:41:01;;;;;;;22.70;5.22;;;;;;;5.10;100.00;101586.38;5021688;28;20078;-59
2023/12/20 08:43:26;;;;;;;27.13;6.22;;;;;;;5.14;100.00;101577.41;5038614;28;20485;-58
2023/12/20 08:45:51;;;;;;;20.50;4.65;;;;;;;5.15;100.00;101576.50;5032625;28;20028;-59
2023/12/20 08:48:17;;;;;;;23.40;4.90;;;;;;;5.18;100.00;101572.91;5029574;28;20498;-58
2023/12/20 08:50:42;;;;;;;25.38;5.35;;;;;;;5.21;100.00;101561.38;5032506;28;20033;-59
2023/12/20 08:53:07;;;;;;;25.80;5.47;;;;;;;5.24;100.00;101559.44;5037003;28;20042;-59
2023/12/20 08:55:33;;;;;;;23.67;4.72;;;;;;;5.26;100.00;101557.63;5040963;28;20021;-58
2023/12/20 08:57:58;;;;;;;24.83;5.22;;;;;;;5.27;100.00;101556.69;5037129;28;20034;-59
2023/12/20 09:00:25;;;;;;;23.95;5.22;;;;;;;5.28;100.00;101552.28;5030253;28;20057;-58
2023/12/20 09:02:51;;;;;;;23.08;5.38;;;;;;;5.29;100.00;101557.47;5030966;28;20030;-59
2023/12/20 09:05:16;;;;;;;19.15;5.22;;;;;;;5.30;100.00;101556.56;5033443;28;20035;-59
2023/12/20 09:07:41;;;;;;;22.80;4.95;;;;;;;5.31;100.00;101554.78;5029701;28;20033;-58
2023/12/20 09:10:07;;;;;;;19.25;4.63;;;;;;;5.32;100.00;101559.97;5040618;28;20025;-57
2023/12/20 09:12:32;;;;;;;20.98;5.10;;;;;;;5.33;100.00;101566.13;5037941;28;20406;-59
2023/12/20 09:14:57;;;;;;;24.90;5.20;;;;;;;5.34;100.00;101567.81;5038216;28;20025;-58
2023/12/20 09:17:23;;;;;;;23.17;4.88;;;;;;;5.35;100.00;101561.66;5035248;28;20113;-59
2023/12/20 09:19:48;;;;;;;21.17;5.40;;;;;;;5.37;100.00;101558.00;5030436;28;20124;-57
2023/12/20 09:22:13;;;;;;;20.92;5.57;;;;;;;5.38;100.00;101561.50;5031977;28;20075;-58
2023/12/20 09:24:39;;;;;;;23.33;5.32;;;;;;;5.38;100.00;101564.16;5035808;28;20021;-59
2023/12/20 09:27:05;;;;;;;20.88;4.45;;;;;;;5.40;100.00;101572.00;5037981;28;20096;-58
2023/12/20 09:29:31;;;;;;;21.52;5.25;;;;;;;5.41;100.00;101571.88;5031547;28;20486;-58
2023/12/20 09:31:57;;;;;;;25.80;5.25;;;;;;;5.42;100.00;101581.53;5036919;28;20033;-57
2023/12/20 09:34:22;;;;;;;22.05;4.75;;;;;;;5.43;100.00;101556.91;5034674;28;20470;-57
2023/12/20 09:36:48;;;;;;;20.80;4.80;;;;;;;5.46;100.00;101562.03;5038134;28;20039;-58
2023/12/20 09:39:14;;;;;;;20.00;4.72;;;;;;;5.46;100.00;101548.00;5038841;28;20103;-58
2023/12/20 09:41:47;;;;;;;24.85;5.10;;;;;;;5.47;100.00;101544.44;5035678;28;20471;-58
2023/12/20 09:44:17;;;;;;;20.75;4.80;;;;;;;5.48;100.00;101543.50;5035003;28;20036;-58
2023/12/20 09:46:45;;;;;;;21.38;4.95;;;;;;;5.50;100.00;101542.53;5027354;28;20045;-59
2023/12/20 09:49:12;;;;;;;23.05;4.43;;;;;;;5.52;100.00;101553.00;5037239;28;20071;-58
2023/12/20 09:51:37;;;;;;;21.50;4.82;;;;;;;5.54;100.00;101562.53;5035534;28;20028;-58
2023/12/20 09:54:03;;;;;;;23.50;4.43;;;;;;;5.56;100.00;101554.56;5017531;28;20021;-58
2023/12/20 09:56:29;;;;;;;20.77;4.68;;;;;;;5.58;100.00;101555.38;5030498;28;20494;-58
2023/12/20 09:58:55;;;;;;;24.15;4.68;;;;;;;5.60;100.00;101553.50;5035337;28;20545;-58
2023/12/20 10:01:21;;;;;;;17.63;4.78;;;;;;;5.62;100.00;101556.94;5033962;28;20033;-58
2023/12/20 10:03:46;;;;;;;24.75;5.25;;;;;;;5.66;100.00;101552.38;5035849;28;20423;-58
2023/12/20 10:06:12;;;;;;;19.60;4.38;;;;;;;5.67;100.00;101547.03;5035497;28;20517;-58
2023/12/20 10:08:38;;;;;;;19.77;5.10;;;;;;;5.70;100.00;101553.97;5033599;28;20072;-58
2023/12/20 10:11:03;;;;;;;20.30;4.65;;;;;;;5.71;100.00;101558.28;5029804;28;20034;-59
2023/12/20 10:13:29;;;;;;;24.02;5.15;;;;;;;5.74;100.00;101552.88;5030763;28;20049;-58
2023/12/20 10:15:55;;;;;;;23.25;5.47;;;;;;;5.76;100.00;101545.75;5035487;28;20033;-57
2023/12/20 10:18:21;;;;;;;18.02;4.45;;;;;;;5.78;100.00;101549.22;5034906;28;20547;-58
2023/12/20 10:20:46;;;;;;;21.02;4.65;;;;;;;5.81;100.00;101542.94;5032111;28;20026;-58
2023/12/20 10:23:13;;;;;;;18.90;4.70;;;;;;;5.85;100.00;101552.41;5038238;28;20038;-58
2023/12/20 10:25:39;;;;;;;21.40;4.65;;;;;;;5.86;100.00;101547.09;5038291;28;20057;-59
2023/12/20 10:28:18;;;;;;;22.88;4.85;;;;;;;5.88;100.00;101549.66;5037200;28;20053;-58
2023/12/20 10:30:44;;;;;;;24.65;4.70;;;;;;;5.92;100.00;101548.56;5034855;28;20022;-58
2023/12/20 10:33:10;;;;;;;20.98;4.45;;;;;;;5.93;100.00;101553.78;5034994;28;20100;-58
2023/12/20 10:35:36;;;;;;;21.23;4.63;;;;;;;5.96;100.00;101544.88;5035297;28;20108;-58
2023/12/20 10:38:05;;;;;;;22.50;4.95;;;;;;;5.98;100.00;101542.19;5036936;28;20034;-58
2023/12/20 10:40:31;;;;;;;23.60;4.38;;;;;;;6.00;100.00;101537.72;5031904;28;20062;-58
2023/12/20 10:42:58;;;;;;;22.65;5.22;;;;;;;6.00;100.00;101532.44;5026929;28;20025;-58
2023/12/20 10:45:23;;;;;;;19.92;4.65;;;;;;;6.02;100.00;101538.50;5012975;28;20029;-57
2023/12/20 10:47:50;;;;;;;18.98;4.18;;;;;;;6.04;100.00;101526.09;5030839;28;20041;-58
2023/12/20 10:50:15;;;;;;;22.75;5.20;;;;;;;6.05;100.00;101527.81;5027257;28;20075;-58
2023/12/20 10:52:42;;;;;;;21.00;4.50;;;;;;;6.06;100.00;101521.59;5030485;28;20033;-58
2023/12/20 10:55:08;;;;;;;18.77;5.18;;;;;;;6.06;100.00;101529.50;5036394;28;20032;-59
2023/12/20 10:57:35;;;;;;;17.95;4.05;;;;;;;6.08;100.00;101535.59;5032536;28;20030;-58
2023/12/20 11:00:05;;;;;;;21.42;4.40;;;;;;;6.10;100.00;101525.81;5035039;28;20120;-57
2023/12/20 11:02:39;;;;;;;23.77;4.78;;;;;;;6.08;100.00;101515.31;5035960;28;20394;-58
2023/12/20 11:05:22;;;;;;;19.38;4.28;;;;;;;6.13;100.00;101509.84;5036450;28;20060;-58
2023/12/20 11:08:05;;;;;;;15.80;4.60;;;;;;;6.13;100.00;101501.94;5040014;28;20051;-58
2023/12/20 11:11:12;;;;;;;22.27;5.25;;;;;;;6.15;100.00;101496.59;5035899;28;20055;-58